Time;durP1;ratioP1;P1;durP2;ratioP2;P2;SDS_P1;SDS_P2;PMS_P1;PMS_P2;Temp;Humidity;BMP_temperature;BMP_pressure;BME280_temperature;BME280_humidity;BME280_pressure;Samples;Min_cycle;Max_cycle;Signal;HPM_P1;HPM_P2
2022/01/13 00:02:16;;;;;;;;;;;4.80;99.90;;;;;;7349209;19;112251;-79
2022/01/13 00:04:44;;;;;;;105.83;26.50;;;4.80;99.90;;;;;;7349454;19;112990;-79
2022/01/13 00:07:11;;;;;;;104.73;27.57;;;4.80;99.90;;;;;;7345648;19;110294;-79
2022/01/13 00:09:38;;;;;;;84.50;26.13;;;4.70;99.90;;;;;;7341461;19;115387;-79
2022/01/13 00:12:08;;;;;;;85.87;26.43;;;4.70;99.90;;;;;;7344667;19;111652;-78
2022/01/13 00:17:33;;;;;;;97.97;27.10;;;4.70;99.90;;;;;;7344573;19;112676;-79
2022/01/13 00:20:26;;;;;;;103.47;27.83;;;4.80;99.90;;;;;;7341044;19;111286;-79
2022/01/13 00:25:56;;;;;;;104.93;29.40;;;4.80;99.90;;;;;;7349722;19;112131;-79
2022/01/13 00:28:24;;;;;;;111.20;29.37;;;4.80;99.90;;;;;;7341798;19;112268;-79
2022/01/13 00:30:55;;;;;;;115.83;30.70;;;4.80;99.90;;;;;;7340751;19;113074;-79
2022/01/13 00:33:25;;;;;;;86.10;26.53;;;4.80;99.90;;;;;;7341033;19;111986;-79
2022/01/13 00:35:55;;;;;;;96.67;29.27;;;4.80;99.90;;;;;;7341395;19;112359;-79
2022/01/13 00:38:22;;;;;;;106.93;28.93;;;4.80;99.90;;;;;;7342810;19;112734;-78
2022/01/13 00:40:49;;;;;;;90.27;28.07;;;4.80;99.90;;;;;;7337164;19;112086;-78
2022/01/13 00:43:16;;;;;;;126.90;30.67;;;4.80;99.90;;;;;;7344344;19;111907;-79
2022/01/13 00:45:43;;;;;;;134.33;31.73;;;4.80;99.90;;;;;;7338366;19;113298;-79
2022/01/13 00:48:10;;;;;;;115.10;31.43;;;4.80;99.90;;;;;;7342716;19;112888;-79
2022/01/13 00:50:38;;;;;;;130.57;31.73;;;4.70;99.90;;;;;;7338365;19;115060;-79
2022/01/13 00:53:05;;;;;;;108.43;31.03;;;4.70;99.90;;;;;;7340889;19;110417;-79
2022/01/13 00:55:45;;;;;;;127.37;33.00;;;4.70;99.90;;;;;;7340810;19;112542;-79
2022/01/13 00:58:13;;;;;;;104.07;30.90;;;4.70;99.90;;;;;;7340276;19;111354;-79
2022/01/13 01:00:40;;;;;;;121.77;32.67;;;4.70;99.90;;;;;;7342608;19;112216;-79
2022/01/13 01:03:09;;;;;;;108.07;29.80;;;4.70;99.90;;;;;;7338476;19;112100;-79
2022/01/13 01:05:36;;;;;;;100.90;29.90;;;4.70;99.90;;;;;;7340277;19;113374;-79
2022/01/13 01:08:05;;;;;;;132.20;31.87;;;4.80;99.90;;;;;;7338460;19;112315;-79
2022/01/13 01:10:33;;;;;;;91.73;28.53;;;4.80;99.90;;;;;;7345289;19;113237;-78
2022/01/13 01:13:10;;;;;;;100.67;28.27;;;4.80;99.90;;;;;;7339344;19;112244;-78
2022/01/13 01:15:41;;;;;;;93.25;25.63;;;4.70;99.90;;;;;;7341218;19;112258;-79
2022/01/13 01:18:20;;;;;;;87.67;25.50;;;4.70;99.90;;;;;;7343585;19;112515;-78
2022/01/13 01:29:07;;;;;;;88.57;25.90;;;4.60;99.90;;;;;;7341368;19;113062;-78
2022/01/13 01:31:37;;;;;;;109.57;27.63;;;4.50;99.90;;;;;;7340077;19;112715;-79
2022/01/13 01:36:45;;;;;;;87.00;25.13;;;4.50;99.90;;;;;;7342488;19;112705;-79
2022/01/13 01:39:13;;;;;;;87.07;24.87;;;4.60;99.90;;;;;;7338745;19;114336;-79
2022/01/13 01:41:43;;;;;;;86.43;24.83;;;4.60;99.90;;;;;;7339263;19;111694;-79
2022/01/13 01:44:16;;;;;;;90.33;25.53;;;4.60;99.90;;;;;;7338585;19;112092;-78
2022/01/13 01:46:46;;;;;;;91.97;25.87;;;4.60;99.90;;;;;;7339003;19;112678;-79
2022/01/13 01:49:24;;;;;;;101.70;26.37;;;4.60;99.90;;;;;;7341889;19;113005;-79
2022/01/13 01:51:54;;;;;;;103.00;26.53;;;4.70;99.90;;;;;;7338184;19;112586;-78
2022/01/13 01:54:22;;;;;;;106.80;27.40;;;4.70;99.90;;;;;;7347575;19;112752;-79
2022/01/13 01:56:49;;;;;;;106.57;27.33;;;4.70;99.90;;;;;;7338253;19;112373;-79
2022/01/13 01:59:20;;;;;;;98.90;26.43;;;4.70;99.90;;;;;;7341785;19;112424;-79
2022/01/13 02:01:48;;;;;;;101.40;28.10;;;4.60;99.90;;;;;;7338876;19;111773;-78
2022/01/13 02:04:17;;;;;;;93.50;26.00;;;4.60;99.90;;;;;;7338981;19;112581;-79
2022/01/13 02:06:44;;;;;;;84.03;26.17;;;4.60;99.90;;;;;;7338284;19;112911;-79
2022/01/13 02:09:14;;;;;;;108.03;27.63;;;4.60;99.90;;;;;;7339081;19;112254;-79
2022/01/13 02:11:46;;;;;;;94.43;27.40;;;4.70;99.90;;;;;;7339404;19;112377;-78
2022/01/13 02:16:56;;;;;;;110.97;28.03;;;4.70;99.90;;;;;;7345660;19;111745;-77
2022/01/13 02:19:24;;;;;;;100.40;26.80;;;4.70;99.90;;;;;;7338076;19;112835;-79
2022/01/13 02:21:52;;;;;;;105.87;28.27;;;4.70;99.90;;;;;;7337384;19;114596;-78
2022/01/13 02:24:19;;;;;;;99.17;28.60;;;4.70;99.90;;;;;;7337551;19;112606;-79
2022/01/13 02:26:46;;;;;;;114.50;29.67;;;4.70;99.90;;;;;;7338308;19;112758;-79
2022/01/13 02:29:13;;;;;;;101.03;27.57;;;4.70;99.90;;;;;;7339146;19;112155;-79
2022/01/13 02:31:40;;;;;;;102.77;27.07;;;4.70;99.90;;;;;;7337776;19;112102;-78
2022/01/13 02:34:07;;;;;;;105.03;28.20;;;4.70;99.90;;;;;;7341239;19;113297;-78
2022/01/13 02:36:37;;;;;;;105.73;29.37;;;4.80;99.90;;;;;;7334100;19;112102;-79
2022/01/13 02:39:04;;;;;;;90.87;27.47;;;4.70;99.90;;;;;;7345053;19;110796;-78
2022/01/13 02:41:31;;;;;;;87.27;28.17;;;4.70;99.90;;;;;;7334894;19;112161;-79
2022/01/13 02:43:59;;;;;;;;;;;4.80;99.90;;;;;;7339898;19;111998;-79
2022/01/13 02:49:09;;;;;;;112.07;27.67;;;4.70;99.90;;;;;;7338891;19;111256;-79
2022/01/13 02:51:37;;;;;;;119.93;28.77;;;4.80;99.90;;;;;;7336025;19;115103;-79
2022/01/13 02:54:05;;;;;;;93.93;28.10;;;4.80;99.90;;;;;;7336791;19;112386;-78
2022/01/13 02:56:33;;;;;;;115.27;29.13;;;4.80;99.90;;;;;;7339490;19;110670;-79
2022/01/13 02:59:00;;;;;;;144.57;30.03;;;4.80;99.90;;;;;;7335515;19;115090;-79
2022/01/13 03:01:27;;;;;;;92.10;27.80;;;4.80;99.90;;;;;;7342514;19;112874;-79
2022/01/13 03:03:54;;;;;;;107.63;28.97;;;4.80;99.90;;;;;;7337339;19;112438;-79
2022/01/13 03:06:31;;;;;;;129.90;29.83;;;4.80;99.90;;;;;;7337659;19;112356;-79
2022/01/13 03:08:58;;;;;;;109.17;29.73;;;4.80;99.90;;;;;;7337253;19;113990;-79
2022/01/13 03:11:33;;;;;;;115.33;28.43;;;4.80;99.90;;;;;;7336063;19;112326;-79
2022/01/13 03:14:00;;;;;;;125.33;30.97;;;4.80;99.90;;;;;;7337837;19;112771;-78
2022/01/13 03:16:28;;;;;;;102.00;29.67;;;4.80;99.90;;;;;;7333428;19;112194;-79
2022/01/13 03:18:55;;;;;;;100.50;29.17;;;4.80;99.90;;;;;;7339261;19;112243;-79
2022/01/13 03:21:23;;;;;;;106.00;29.10;;;4.80;99.90;;;;;;7335890;19;112613;-79
2022/01/13 03:23:51;;;;;;;97.53;27.93;;;4.80;99.90;;;;;;7341804;19;112843;-79
2022/01/13 03:26:20;;;;;;;107.43;29.70;;;4.80;99.90;;;;;;7341578;19;110784;-79
2022/01/13 03:28:54;;;;;;;119.67;30.63;;;4.80;99.90;;;;;;7345726;19;112061;-79
2022/01/13 03:31:23;;;;;;;125.57;30.33;;;4.80;99.90;;;;;;7344491;19;113532;-78
2022/01/13 03:33:51;;;;;;;125.43;31.13;;;4.80;99.90;;;;;;7340551;19;112437;-79
2022/01/13 03:36:18;;;;;;;123.07;29.27;;;4.80;99.90;;;;;;7346109;19;110778;-79
2022/01/13 03:38:46;;;;;;;122.73;29.80;;;4.80;99.90;;;;;;7340225;19;112704;-79
2022/01/13 03:41:14;;;;;;;117.03;30.93;;;4.80;99.90;;;;;;7344184;19;112986;-78
2022/01/13 03:43:41;;;;;;;109.87;29.57;;;4.80;99.90;;;;;;7340778;19;113452;-79
2022/01/13 03:46:08;;;;;;;134.57;31.70;;;4.80;99.90;;;;;;7348136;19;111987;-79
2022/01/13 03:48:38;;;;;;;117.83;30.67;;;4.80;99.90;;;;;;7342557;19;114215;-78
2022/01/13 03:51:05;;;;;;;125.20;32.03;;;4.80;99.90;;;;;;7340292;19;112356;-78
2022/01/13 03:53:32;;;;;;;;;;;4.80;99.90;;;;;;7344273;19;112718;-78
2022/01/13 03:56:24;;;;;;;117.33;31.17;;;4.80;99.90;;;;;;7346872;19;110539;-79
2022/01/13 03:59:12;;;;;;;126.97;32.23;;;4.80;99.90;;;;;;7345483;19;110912;-79
2022/01/13 04:02:00;;;;;;;168.53;34.57;;;4.80;99.90;;;;;;7342053;19;113124;-79
2022/01/13 04:04:50;;;;;;;134.27;31.93;;;4.80;99.90;;;;;;7342882;19;112998;-79
2022/01/13 04:07:21;;;;;;;157.03;32.40;;;4.80;99.90;;;;;;7350188;19;112228;-79
2022/01/13 04:09:49;;;;;;;142.17;33.87;;;4.80;99.90;;;;;;7340490;19;112312;-78
2022/01/13 04:12:19;;;;;;;136.93;33.00;;;4.80;99.90;;;;;;7341830;19;112902;-79
2022/01/13 04:15:00;;;;;;;117.13;31.37;;;4.80;99.90;;;;;;7341956;19;112759;-80
2022/01/13 04:17:28;;;;;;;256.47;35.90;;;4.80;99.90;;;;;;7343371;19;111143;-79
2022/01/13 04:19:55;;;;;;;104.93;30.17;;;4.80;99.90;;;;;;7343693;19;112118;-79
2022/01/13 04:22:25;;;;;;;194.27;33.03;;;4.80;99.90;;;;;;7340411;19;111149;-79
2022/01/13 04:24:53;;;;;;;115.27;29.60;;;4.80;99.90;;;;;;7343994;19;112091;-79
2022/01/13 04:27:27;;;;;;;112.87;30.70;;;4.80;99.90;;;;;;7339447;19;115448;-79
2022/01/13 04:32:39;;;;;;;106.50;28.70;;;4.80;99.90;;;;;;7341637;19;112431;-79
2022/01/13 04:35:09;;;;;;;110.03;28.70;;;4.80;99.90;;;;;;7342463;19;112766;-79
2022/01/13 04:37:37;;;;;;;107.77;29.37;;;4.80;99.90;;;;;;7341765;19;111980;-79
2022/01/13 04:40:08;;;;;;;129.93;31.33;;;4.80;99.90;;;;;;7339654;19;111183;-79
2022/01/13 04:42:37;;;;;;;145.17;32.10;;;4.80;99.90;;;;;;7343792;19;110910;-79
2022/01/13 04:45:05;;;;;;;100.87;29.23;;;4.80;99.90;;;;;;7338430;19;110419;-79
2022/01/13 04:47:32;;;;;;;110.13;30.23;;;4.80;99.90;;;;;;7344295;19;110502;-79
2022/01/13 04:49:59;;;;;;;122.27;30.17;;;4.80;99.90;;;;;;7340654;19;112492;-79
2022/01/13 04:52:26;;;;;;;316.57;32.53;;;4.80;99.90;;;;;;7345814;19;112194;-79
2022/01/13 04:54:53;;;;;;;195.97;32.63;;;4.80;99.90;;;;;;7341560;19;114683;-79
2022/01/13 04:57:20;;;;;;;;;;;4.70;99.90;;;;;;7343184;19;111970;-78
2022/01/13 04:59:47;;;;;;;102.83;28.03;;;4.60;99.90;;;;;;7346713;19;112457;-79
2022/01/13 05:02:16;;;;;;;116.03;29.90;;;4.60;99.90;;;;;;7341284;19;112394;-79
2022/01/13 05:04:44;;;;;;;296.40;32.27;;;4.60;99.90;;;;;;7344155;19;112021;-79
2022/01/13 05:07:11;;;;;;;126.73;31.57;;;4.60;99.90;;;;;;7338482;19;115391;-79
2022/01/13 05:09:38;;;;;;;363.40;33.17;;;4.60;99.90;;;;;;7339931;19;112368;-79
2022/01/13 05:12:05;;;;;;;136.40;31.67;;;4.60;99.90;;;;;;7338641;19;112184;-79
2022/01/13 05:14:32;;;;;;;108.23;29.17;;;4.50;99.90;;;;;;7347292;19;115773;-79
2022/01/13 05:17:45;;;;;;;114.53;30.70;;;4.60;99.90;;;;;;7337540;19;112344;-79
2022/01/13 05:20:09;;;;;;;118.77;29.57;;;4.60;99.90;;;;;;7339128;19;112529;-79
2022/01/13 05:22:36;;;;;;;110.87;28.13;;;4.60;99.90;;;;;;7342860;19;112414;-79
2022/01/13 05:25:04;;;;;;;105.83;29.33;;;4.60;99.90;;;;;;7336703;19;111193;-78
2022/01/13 05:27:32;;;;;;;127.90;29.33;;;4.60;99.90;;;;;;7340934;19;110410;-80
2022/01/13 05:30:01;;;;;;;116.43;27.10;;;4.60;99.90;;;;;;7338802;19;115266;-79
2022/01/13 05:32:29;;;;;;;106.63;27.37;;;4.60;99.90;;;;;;7338900;19;111197;-79
2022/01/13 05:34:56;;;;;;;278.43;30.37;;;4.60;99.90;;;;;;7342359;19;114303;-79
2022/01/13 05:37:23;;;;;;;117.10;26.93;;;4.60;99.90;;;;;;7344998;19;112950;-79
2022/01/13 05:39:50;;;;;;;122.63;27.87;;;4.50;99.90;;;;;;7341067;19;112598;-79
2022/01/13 05:42:17;;;;;;;120.60;27.37;;;4.60;99.90;;;;;;7339457;19;113403;-79
2022/01/13 05:44:44;;;;;;;126.87;30.40;;;4.50;99.90;;;;;;7338959;19;112008;-79
2022/01/13 05:47:13;;;;;;;120.57;28.03;;;4.50;99.90;;;;;;7337080;19;114588;-79
2022/01/13 05:49:42;;;;;;;149.47;28.80;;;4.50;99.90;;;;;;7338205;19;112566;-79
2022/01/13 05:52:11;;;;;;;97.57;27.27;;;4.60;99.90;;;;;;7337681;19;111860;-79
2022/01/13 05:54:40;;;;;;;103.27;26.97;;;4.60;99.90;;;;;;7339536;19;112326;-79
2022/01/13 05:57:07;;;;;;;152.23;26.03;;;4.60;99.90;;;;;;7331208;19;112715;-79
2022/01/13 05:59:35;;;;;;;189.60;27.57;;;4.60;99.90;;;;;;7337258;19;113211;-79
2022/01/13 06:02:04;;;;;;;142.03;26.90;;;4.50;99.90;;;;;;7333072;19;115164;-79
2022/01/13 06:04:31;;;;;;;268.70;29.53;;;4.50;99.90;;;;;;7337907;19;114443;-79
2022/01/13 06:06:58;;;;;;;178.63;27.83;;;4.50;99.90;;;;;;7339822;19;112441;-79
2022/01/13 06:09:25;;;;;;;107.87;25.23;;;4.50;99.90;;;;;;7336256;19;112451;-79
2022/01/13 06:11:57;;;;;;;;;;;4.40;99.90;;;;;;7339841;19;115474;-79
2022/01/13 06:14:25;;;;;;;97.80;22.07;;;4.40;99.90;;;;;;7344126;19;110719;-79
2022/01/13 06:16:52;;;;;;;170.10;26.07;;;4.30;99.90;;;;;;7337875;19;112253;-79
2022/01/13 06:19:19;;;;;;;97.20;24.63;;;4.40;99.90;;;;;;7345440;19;112147;-79
2022/01/13 06:21:47;;;;;;;173.87;26.33;;;4.40;99.90;;;;;;7335769;19;112657;-79
2022/01/13 06:24:14;;;;;;;210.27;27.33;;;4.40;99.90;;;;;;7338585;19;111821;-79
2022/01/13 06:26:41;;;;;;;211.80;28.33;;;4.30;99.90;;;;;;7334684;19;111437;-79
2022/01/13 06:29:08;;;;;;;147.07;25.20;;;4.30;99.90;;;;;;7339896;19;112983;-79
2022/01/13 06:31:34;;;;;;;;;;;4.20;99.90;;;;;;7335068;19;112146;-79
2022/01/13 06:34:02;;;;;;;111.80;26.37;;;4.20;99.90;;;;;;7345243;19;113944;-79
2022/01/13 06:36:31;;;;;;;108.57;25.93;;;4.20;99.90;;;;;;7336267;19;112648;-80
2022/01/13 06:38:59;;;;;;;115.03;26.97;;;4.20;99.90;;;;;;7337898;19;112122;-81
2022/01/13 06:41:26;;;;;;;104.50;26.47;;;4.30;99.90;;;;;;7345154;19;112283;-78
2022/01/13 06:43:53;;;;;;;101.60;26.10;;;4.30;99.90;;;;;;7333923;19;115158;-79
2022/01/13 06:46:20;;;;;;;125.57;26.63;;;4.30;99.90;;;;;;7340244;19;112063;-79
2022/01/13 06:48:47;;;;;;;246.13;28.63;;;4.20;99.90;;;;;;7336306;19;113122;-79
2022/01/13 06:51:14;;;;;;;104.03;25.00;;;4.20;99.90;;;;;;7339487;19;112340;-79
2022/01/13 06:53:41;;;;;;;209.57;27.33;;;4.20;99.90;;;;;;7337621;19;111400;-77
2022/01/13 06:56:10;;;;;;;167.37;25.87;;;4.20;99.90;;;;;;7338095;19;113232;-78
2022/01/13 06:58:37;;;;;;;160.10;27.17;;;4.20;99.90;;;;;;7337555;19;111975;-78
2022/01/13 07:01:04;;;;;;;139.13;26.03;;;4.20;99.90;;;;;;7333647;19;110855;-78
2022/01/13 07:03:37;;;;;;;111.97;25.27;;;4.20;99.90;;;;;;7345720;19;112477;-79
2022/01/13 07:06:04;;;;;;;153.50;25.60;;;4.20;99.90;;;;;;7336738;19;111830;-78
2022/01/13 07:08:33;;;;;;;199.30;25.13;;;4.30;99.90;;;;;;7338996;19;112786;-78
2022/01/13 07:11:03;;;;;;;133.43;25.20;;;4.30;99.90;;;;;;7339291;19;111461;-78
2022/01/13 07:13:31;;;;;;;123.33;23.83;;;4.20;99.90;;;;;;7336665;19;114864;-79
2022/01/13 07:16:01;;;;;;;118.43;22.73;;;4.20;99.90;;;;;;7340383;19;112987;-78
2022/01/13 07:18:28;;;;;;;136.73;23.70;;;4.20;99.90;;;;;;7336472;19;112240;-78
2022/01/13 07:20:56;;;;;;;284.00;24.93;;;4.20;99.90;;;;;;7337955;19;112299;-78
2022/01/13 07:23:23;;;;;;;93.33;23.07;;;4.20;99.90;;;;;;7336691;19;112783;-77
2022/01/13 07:25:51;;;;;;;174.33;24.83;;;4.20;99.90;;;;;;7340889;19;111643;-79
2022/01/13 07:28:18;;;;;;;105.67;24.00;;;4.20;99.90;;;;;;7337330;19;113087;-77
2022/01/13 07:30:45;;;;;;;153.77;24.27;;;4.20;99.90;;;;;;7335441;19;111505;-77
2022/01/13 07:33:12;;;;;;;118.43;24.47;;;4.20;99.90;;;;;;7337394;19;114739;-79
2022/01/13 07:35:39;;;;;;;151.27;25.20;;;4.10;99.90;;;;;;7335851;19;112965;-79
2022/01/13 07:38:06;;;;;;;217.13;26.80;;;4.20;99.90;;;;;;7336907;19;115018;-78
2022/01/13 07:40:33;;;;;;;174.70;25.17;;;4.20;99.90;;;;;;7336604;19;111998;-78
2022/01/13 07:43:00;;;;;;;105.73;24.47;;;4.20;99.90;;;;;;7338177;19;112426;-79
2022/01/13 07:45:27;;;;;;;93.27;22.40;;;4.20;99.90;;;;;;7336167;19;111668;-77
2022/01/13 07:47:54;;;;;;;198.67;25.03;;;4.20;99.90;;;;;;7341200;19;110787;-79
2022/01/13 07:50:24;;;;;;;190.93;23.47;;;4.20;99.90;;;;;;7337188;19;112690;-79
2022/01/13 07:52:51;;;;;;;273.10;25.23;;;4.20;99.90;;;;;;7336162;19;114240;-79
2022/01/13 07:55:18;;;;;;;156.97;23.97;;;4.20;99.90;;;;;;7336840;19;112761;-78
2022/01/13 07:57:45;;;;;;;103.33;23.23;;;4.10;99.90;;;;;;7335950;19;111226;-78
2022/01/13 08:00:14;;;;;;;105.73;24.07;;;4.10;99.90;;;;;;7338389;19;112451;-79
2022/01/13 08:02:41;;;;;;;113.87;22.53;;;4.10;99.90;;;;;;7336645;19;112669;-78
2022/01/13 08:05:09;;;;;;;144.27;23.07;;;4.10;99.90;;;;;;7335794;19;112239;-79
2022/01/13 08:07:36;;;;;;;193.40;23.60;;;4.20;99.90;;;;;;7336345;19;111909;-79
2022/01/13 08:10:04;;;;;;;172.30;23.40;;;4.10;99.90;;;;;;7340944;19;112847;-79
2022/01/13 08:12:32;;;;;;;163.77;23.60;;;4.10;99.90;;;;;;7344367;19;112458;-79
2022/01/13 08:14:59;;;;;;;127.60;22.60;;;4.20;99.90;;;;;;7342718;19;112782;-78
2022/01/13 08:20:11;;;;;;;102.57;20.90;;;4.20;99.90;;;;;;7341936;19;112291;-79
2022/01/13 08:22:38;;;;;;;187.90;22.10;;;4.20;99.90;;;;;;7342313;19;112588;-78
2022/01/13 08:25:08;;;;;;;203.97;21.17;;;4.10;99.90;;;;;;7343582;19;112214;-79
2022/01/13 08:27:36;;;;;;;139.00;20.40;;;4.20;99.90;;;;;;7342627;19;112291;-78
2022/01/13 08:30:05;;;;;;;127.13;20.00;;;4.10;99.90;;;;;;7350462;19;112786;-78
2022/01/13 08:32:32;;;;;;;192.07;20.60;;;4.10;99.90;;;;;;7341297;19;113026;-79
2022/01/13 08:34:59;;;;;;;159.10;20.00;;;4.10;99.90;;;;;;7345453;19;115067;-78
2022/01/13 08:37:26;;;;;;;152.87;20.93;;;4.10;99.90;;;;;;7340779;19;112240;-79
2022/01/13 08:39:55;;;;;;;123.60;21.00;;;4.10;99.90;;;;;;7344265;19;113222;-78
2022/01/13 08:42:22;;;;;;;155.97;20.27;;;4.10;99.90;;;;;;7342028;19;112327;-78
2022/01/13 08:44:49;;;;;;;103.97;20.53;;;4.10;99.90;;;;;;7343001;19;112062;-78
2022/01/13 08:47:16;;;;;;;166.97;21.50;;;4.10;99.90;;;;;;7344963;19;112151;-79
2022/01/13 08:49:43;;;;;;;107.00;20.20;;;4.10;99.90;;;;;;7341900;19;112490;-79
2022/01/13 08:52:12;;;;;;;275.27;22.40;;;4.10;99.90;;;;;;7349920;19;112198;-79
2022/01/13 08:54:38;;;;;;;574.63;27.57;;;4.10;99.90;;;;;;7339471;19;112784;-79
2022/01/13 08:57:06;;;;;;;;;;;4.10;99.90;;;;;;7343947;19;112318;-78
2022/01/13 08:59:33;;;;;;;113.53;20.10;;;4.10;99.90;;;;;;7344442;19;111813;-78
2022/01/13 09:02:00;;;;;;;129.43;22.83;;;4.10;99.90;;;;;;7339038;19;112414;-78
2022/01/13 09:04:27;;;;;;;126.40;21.97;;;4.10;99.90;;;;;;7339592;19;112179;-78
2022/01/13 09:06:55;;;;;;;;;;;4.10;99.90;;;;;;7340970;19;111749;-78
2022/01/13 09:09:22;;;;;;;116.15;19.52;;;4.10;99.90;;;;;;7345495;19;115710;-78
2022/01/13 09:11:49;;;;;;;;;;;4.10;99.90;;;;;;7342612;19;112517;-78
2022/01/13 09:14:17;;;;;;;140.67;20.67;;;4.20;99.90;;;;;;7352721;19;111970;-79
2022/01/13 09:16:47;;;;;;;72.83;18.27;;;4.10;99.90;;;;;;7341200;19;112393;-77
2022/01/13 09:19:17;;;;;;;92.70;20.73;;;4.10;99.90;;;;;;7342935;19;110908;-78
2022/01/13 09:21:46;;;;;;;104.73;22.67;;;4.20;99.90;;;;;;7339813;19;112595;-79
2022/01/13 09:24:16;;;;;;;110.47;21.97;;;4.20;99.90;;;;;;7340147;19;110554;-78
2022/01/13 09:26:44;;;;;;;187.43;22.57;;;4.30;99.90;;;;;;7344051;19;113246;-78
2022/01/13 09:29:12;;;;;;;221.30;22.70;;;4.30;99.90;;;;;;7338609;19;113629;-79
2022/01/13 09:31:40;;;;;;;109.97;20.90;;;4.20;99.90;;;;;;7341171;19;110769;-79
2022/01/13 09:34:08;;;;;;;416.30;26.20;;;4.20;99.90;;;;;;7339964;19;112030;-78
2022/01/13 09:36:36;;;;;;;121.93;21.13;;;4.10;99.90;;;;;;7346338;19;112893;-78
2022/01/13 09:39:06;;;;;;;89.43;21.30;;;4.10;99.90;;;;;;7340940;19;112165;-79
2022/01/13 09:41:34;;;;;;;115.10;20.83;;;4.20;99.90;;;;;;7341766;19;113266;-77
2022/01/13 09:44:04;;;;;;;138.17;22.17;;;4.30;99.90;;;;;;7338546;19;112247;-79
2022/01/13 09:46:33;;;;;;;90.67;21.50;;;4.30;99.90;;;;;;7339494;19;112716;-79
2022/01/13 09:49:03;;;;;;;194.53;22.47;;;4.30;99.90;;;;;;7341337;19;112887;-77
2022/01/13 09:51:31;;;;;;;166.87;23.43;;;4.40;99.90;;;;;;7338406;19;112454;-78
2022/01/13 09:53:59;;;;;;;116.97;22.37;;;4.40;99.90;;;;;;7341937;19;112493;-78
2022/01/13 09:56:26;;;;;;;459.33;27.83;;;4.40;99.90;;;;;;7338922;19;113156;-78
2022/01/13 09:58:53;;;;;;;162.23;25.07;;;4.40;99.90;;;;;;7345779;19;111916;-78
2022/01/13 10:01:20;;;;;;;223.97;24.60;;;4.30;99.90;;;;;;7338812;19;112928;-78
2022/01/13 10:03:48;;;;;;;99.70;22.67;;;4.40;99.90;;;;;;7341087;19;114162;-78
2022/01/13 10:06:19;;;;;;;95.73;21.87;;;4.40;99.90;;;;;;7339983;19;112934;-78
2022/01/13 10:08:48;;;;;;;273.17;22.40;;;4.40;99.90;;;;;;7340346;19;112551;-77
2022/01/13 10:11:35;;;;;;;135.10;23.63;;;4.50;99.90;;;;;;7340379;19;112092;-78
2022/01/13 10:17:06;;;;;;;130.07;22.93;;;4.50;99.90;;;;;;7340212;19;112986;-79
2022/01/13 10:19:42;;;;;;;109.90;21.43;;;4.50;99.90;;;;;;7342507;19;110743;-78
2022/01/13 10:22:14;;;;;;;87.20;21.53;;;4.60;99.90;;;;;;7343562;19;110302;-78
2022/01/13 10:24:44;;;;;;;112.33;22.53;;;4.60;99.90;;;;;;7341680;19;112130;-78
2022/01/13 10:27:12;;;;;;;113.37;24.30;;;4.70;99.90;;;;;;7339436;19;113385;-79
2022/01/13 10:29:51;;;;;;;198.90;24.43;;;4.70;99.90;;;;;;7338787;19;111240;-77
2022/01/13 10:32:33;;;;;;;92.33;22.83;;;4.70;99.90;;;;;;7340010;19;110700;-78
2022/01/13 10:35:04;;;;;;;167.03;25.03;;;4.80;99.90;;;;;;7337133;19;112011;-77
2022/01/13 10:37:36;;;;;;;145.20;25.27;;;4.80;99.90;;;;;;7341371;19;112654;-78
2022/01/13 10:40:07;;;;;;;113.83;24.10;;;4.90;99.90;;;;;;7337669;19;112204;-78
2022/01/13 10:45:12;;;;;;;159.37;25.67;;;4.90;99.90;;;;;;7341740;19;111929;-77
2022/01/13 10:47:40;;;;;;;156.10;27.13;;;4.90;99.90;;;;;;7337581;19;112236;-79
2022/01/13 10:50:11;;;;;;;211.70;30.07;;;4.90;99.90;;;;;;7338209;19;112513;-77
2022/01/13 10:52:38;;;;;;;439.33;31.77;;;4.90;99.90;;;;;;7337419;19;112020;-78
2022/01/13 10:55:08;;;;;;;250.53;27.63;;;4.90;99.90;;;;;;7337952;19;113287;-78
2022/01/13 10:57:45;;;;;;;224.27;27.57;;;5.00;99.90;;;;;;7341477;19;113267;-78
2022/01/13 11:00:19;;;;;;;314.47;29.73;;;5.00;99.90;;;;;;7337182;19;111867;-78
2022/01/13 11:02:57;;;;;;;155.90;27.43;;;5.00;99.90;;;;;;7340738;19;112798;-77
2022/01/13 11:05:26;;;;;;;289.53;29.70;;;5.10;99.90;;;;;;7340970;19;112344;-78
2022/01/13 11:07:54;;;;;;;256.07;29.07;;;5.10;99.90;;;;;;7337854;19;113379;-77
2022/01/13 11:10:21;;;;;;;494.27;34.73;;;5.10;99.90;;;;;;7335383;19;114449;-78
2022/01/13 11:12:55;;;;;;;126.70;27.20;;;5.10;99.90;;;;;;7337715;19;115667;-78
2022/01/13 11:15:24;;;;;;;427.90;31.63;;;5.10;99.90;;;;;;7338002;19;113124;-78
2022/01/13 11:17:56;;;;;;;200.80;27.87;;;5.20;99.90;;;;;;7336923;19;113211;-78
2022/01/13 11:20:25;;;;;;;116.37;25.70;;;5.20;99.90;;;;;;7337253;19;112059;-78
2022/01/13 11:22:54;;;;;;;140.23;25.30;;;5.20;99.90;;;;;;7333818;19;112730;-78
2022/01/13 11:25:24;;;;;;;127.80;25.40;;;5.20;99.90;;;;;;7339747;19;112708;-79
2022/01/13 11:27:52;;;;;;;119.53;24.40;;;5.30;99.90;;;;;;7342561;19;112440;-78
2022/01/13 11:30:22;;;;;;;122.37;24.80;;;5.30;99.90;;;;;;7339303;19;112537;-78
2022/01/13 11:32:50;;;;;;;148.47;27.40;;;5.30;99.90;;;;;;7337867;19;112080;-79
2022/01/13 11:35:24;;;;;;;123.20;26.97;;;5.40;99.90;;;;;;7335722;19;113173;-79
2022/01/13 11:37:52;;;;;;;132.43;26.20;;;5.40;99.90;;;;;;7339299;19;112661;-78
2022/01/13 11:40:28;;;;;;;223.97;28.33;;;5.40;99.90;;;;;;7335721;19;112173;-79
2022/01/13 11:42:58;;;;;;;142.85;26.50;;;5.40;99.90;;;;;;7339134;19;110563;-78
2022/01/13 11:45:27;;;;;;;157.93;27.83;;;5.40;99.90;;;;;;7336591;19;112526;-79
2022/01/13 11:48:17;;;;;;;150.13;28.17;;;5.40;99.90;;;;;;7342224;19;112049;-79
2022/01/13 11:50:55;;;;;;;327.73;28.63;;;5.40;99.90;;;;;;7351823;19;114381;-79
2022/01/13 11:53:28;;;;;;;99.07;25.73;;;5.40;99.90;;;;;;7342017;19;115472;-79
2022/01/13 11:56:01;;;;;;;199.73;27.90;;;5.40;99.90;;;;;;7346745;19;111705;-78
2022/01/13 11:58:46;;;;;;;170.87;27.50;;;5.50;99.90;;;;;;7343806;19;112876;-78
2022/01/13 12:01:19;;;;;;;155.50;26.93;;;5.40;99.90;;;;;;7341973;19;111793;-79
2022/01/13 12:04:09;;;;;;;106.97;26.33;;;5.40;99.90;;;;;;7346089;19;113256;-80
2022/01/13 12:06:49;;;;;;;170.77;27.87;;;5.50;99.90;;;;;;7340718;19;112447;-78
2022/01/13 12:09:22;;;;;;;239.73;30.50;;;5.50;99.90;;;;;;7343544;19;112199;-78
2022/01/13 12:11:54;;;;;;;227.00;31.10;;;5.50;99.90;;;;;;7343151;19;112264;-78
2022/01/13 12:14:24;;;;;;;120.13;29.10;;;5.50;99.90;;;;;;7348236;19;112944;-79
2022/01/13 12:17:13;;;;;;;231.63;33.43;;;5.50;99.90;;;;;;7342865;19;112356;-78
2022/01/13 12:19:45;;;;;;;143.57;31.83;;;5.50;99.90;;;;;;7341492;19;113173;-79
2022/01/13 12:22:20;;;;;;;174.67;31.43;;;5.50;99.90;;;;;;7346050;19;110632;-78
2022/01/13 12:24:47;;;;;;;232.23;31.93;;;5.60;99.90;;;;;;7340008;19;112563;-79
2022/01/13 12:27:26;;;;;;;142.40;28.60;;;5.60;99.90;;;;;;7343826;19;112713;-79
2022/01/13 12:30:10;;;;;;;112.70;27.87;;;5.60;99.90;;;;;;7344211;19;111958;-78
2022/01/13 12:32:43;;;;;;;118.63;27.13;;;5.60;99.90;;;;;;7342382;19;112343;-77
2022/01/13 12:35:27;;;;;;;281.93;29.93;;;5.60;99.90;;;;;;7347368;19;112745;-79
2022/01/13 12:38:05;;;;;;;176.67;30.33;;;5.60;99.90;;;;;;7340369;19;114025;-78
2022/01/13 12:41:03;;;;;;;134.57;28.90;;;5.60;99.90;;;;;;7341586;19;111653;-78
2022/01/13 12:46:22;;;;;;;158.67;29.07;;;5.70;99.90;;;;;;7342051;19;112422;-79
2022/01/13 12:48:51;;;;;;;155.98;27.58;;;5.70;99.90;;;;;;7342979;19;111857;-79
2022/01/13 12:51:27;;;;;;;134.87;29.13;;;5.70;99.90;;;;;;7340216;19;112018;-78
2022/01/13 12:53:55;;;;;;;131.97;28.70;;;5.70;99.90;;;;;;7341548;19;113344;-79
2022/01/13 12:56:28;;;;;;;98.53;26.03;;;5.70;99.90;;;;;;7339945;19;112897;-78
2022/01/13 12:59:02;;;;;;;159.17;29.57;;;5.70;99.90;;;;;;7344373;19;111991;-79
2022/01/13 13:01:32;;;;;;;240.67;29.93;;;5.70;99.90;;;;;;7343762;19;114807;-79
2022/01/13 13:04:11;;;;;;;550.33;38.00;;;5.70;99.90;;;;;;7339564;19;113544;-79
2022/01/13 13:06:46;;;;;;;186.93;29.63;;;5.70;99.90;;;;;;7341866;19;112191;-78
2022/01/13 13:09:22;;;;;;;194.87;29.13;;;5.70;99.90;;;;;;7341586;19;112839;-78
2022/01/13 13:11:58;;;;;;;161.05;27.83;;;5.70;99.90;;;;;;7341891;19;111446;-79